Time;durP1;ratioP1;P1;durP2;ratioP2;P2;SDS_P1;SDS_P2;PMS_P1;PMS_P2;Temp;Humidity;BMP_temperature;BMP_pressure;BME280_temperature;BME280_humidity;BME280_pressure;Samples;Min_cycle;Max_cycle;Signal;HPM_P1;HPM_P2
2022/01/11 00:01:30;;;;;;;12.53;11.33;;;;;;;-1.85;80.20;99894.78;4103582;28;20222;-53
2022/01/11 00:03:33;;;;;;;13.07;10.73;;;;;;;-1.74;80.59;99902.72;4103276;28;20665;-55
2022/01/11 00:05:42;;;;;;;11.53;10.47;;;;;;;-1.69;80.27;99893.25;4123592;28;20243;-54
2022/01/11 00:07:44;;;;;;;12.37;11.23;;;;;;;-1.62;80.35;99896.22;4102378;28;21855;-55
2022/01/11 00:09:48;;;;;;;11.80;10.70;;;;;;;-1.57;80.22;99889.44;4104624;28;20701;-54
2022/01/11 00:11:51;;;;;;;14.93;12.73;;;;;;;-1.55;80.18;99892.81;4103889;28;20221;-56
2022/01/11 00:13:53;;;;;;;20.87;10.43;;;;;;;-1.52;79.89;99891.69;4119518;28;20214;-54
2022/01/11 00:15:54;;;;;;;29.60;11.93;;;;;;;-1.51;80.08;99888.88;4107502;28;20222;-53
2022/01/11 00:17:57;;;;;;;13.33;10.03;;;;;;;-1.45;79.92;99898.19;4117564;28;20212;-54
2022/01/11 00:19:59;;;;;;;17.13;12.50;;;;;;;-1.42;79.67;99897.94;4120277;28;20315;-55
2022/01/11 00:22:05;;;;;;;12.43;11.13;;;;;;;-1.42;79.95;99887.22;4106309;28;20291;-54
2022/01/11 00:26:27;;;;;;;15.07;10.53;;;;;;;-1.38;79.73;99899.34;4118445;28;20237;-54
2022/01/11 00:28:30;;;;;;;12.80;10.30;;;;;;;-1.42;79.34;99904.13;4118647;28;20288;-54
2022/01/11 00:30:35;;;;;;;22.17;11.07;;;;;;;-1.52;78.96;99905.13;4085997;28;20632;-55
2022/01/11 00:32:43;;;;;;;38.17;10.43;;;;;;;-1.70;79.34;99898.75;4102280;28;20206;-56
2022/01/11 00:34:55;;;;;;;13.93;9.47;;;;;;;-1.65;79.40;99901.84;4103180;28;20213;-55
2022/01/11 00:36:56;;;;;;;10.87;9.77;;;;;;;-1.74;79.41;99900.03;4091761;28;20678;-54
2022/01/11 00:38:58;;;;;;;11.83;10.60;;;;;;;-1.69;79.65;99903.16;4099598;28;21160;-54
2022/01/11 00:41:02;;;;;;;12.07;11.17;;;;;;;-1.67;79.68;99903.84;4087645;28;20689;-56
2022/01/11 00:43:04;;;;;;;10.07;9.17;;;;;;;-1.64;79.62;99906.22;4101466;28;20629;-55
2022/01/11 00:45:10;;;;;;;11.47;9.17;;;;;;;-1.62;79.62;99906.97;4087492;28;20266;-55
2022/01/11 00:47:11;;;;;;;10.90;9.80;;;;;;;-1.60;79.43;99908.50;4102743;28;20214;-55
2022/01/11 00:49:13;;;;;;;10.20;9.37;;;;;;;-1.62;79.33;99901.59;4102599;28;20704;-54
2022/01/11 00:51:15;;;;;;;11.07;9.97;;;;;;;-1.57;79.51;99910.06;4106478;28;20652;-54
2022/01/11 00:53:18;;;;;;;29.20;11.60;;;;;;;-1.65;79.19;99908.09;4119035;28;20756;-55
2022/01/11 00:55:20;;;;;;;10.90;9.53;;;;;;;-1.71;79.07;99913.16;4121438;28;20675;-58
2022/01/11 00:57:22;;;;;;;14.77;10.70;;;;;;;-1.71;79.30;99907.78;4116154;28;20206;-56
2022/01/11 00:59:24;;;;;;;10.97;10.00;;;;;;;-1.63;79.50;99913.28;4102188;28;20261;-57
2022/01/11 01:01:27;;;;;;;16.20;9.30;;;;;;;-1.72;79.04;99914.13;4099613;28;20236;-54
2022/01/11 01:03:29;;;;;;;18.53;9.80;;;;;;;-1.89;79.32;99917.50;4117121;28;20313;-55
2022/01/11 01:05:31;;;;;;;16.37;10.63;;;;;;;-1.82;79.79;99921.34;4102888;28;20207;-55
2022/01/11 01:07:34;;;;;;;11.87;10.70;;;;;;;-1.78;79.62;99917.38;4104081;28;20265;-54
2022/01/11 01:09:46;;;;;;;11.53;9.60;;;;;;;-1.79;79.37;99916.53;4100180;28;20798;-54
2022/01/11 01:11:48;;;;;;;10.63;9.53;;;;;;;-1.86;79.41;99915.41;4105105;28;20246;-56
2022/01/11 01:13:50;;;;;;;20.23;10.87;;;;;;;-1.88;79.04;99919.19;4103402;28;20858;-54
2022/01/11 01:15:54;;;;;;;31.13;10.80;;;;;;;-2.11;79.52;99929.28;4122432;28;20237;-53
2022/01/11 01:17:56;;;;;;;13.03;9.33;;;;;;;-2.15;79.76;99929.72;4121534;28;20206;-53
2022/01/11 01:19:58;;;;;;;11.27;9.90;;;;;;;-2.08;79.79;99925.50;4111013;28;20254;-54
2022/01/11 01:22:00;;;;;;;29.90;10.77;;;;;;;-2.02;79.88;99939.19;4104789;28;20210;-57
2022/01/11 01:24:04;;;;;;;13.40;10.07;;;;;;;-2.14;79.51;99936.75;4089920;28;20235;-53
2022/01/11 01:26:11;;;;;;;13.90;10.83;;;;;;;-2.06;79.46;99934.25;4102414;28;20963;-53
2022/01/11 01:28:13;;;;;;;11.07;9.93;;;;;;;-1.99;79.63;99930.03;4110508;28;20199;-56
2022/01/11 01:30:17;;;;;;;10.33;9.53;;;;;;;-1.95;79.93;99939.50;4123181;28;20241;-53
2022/01/11 01:32:19;;;;;;;10.70;9.70;;;;;;;-1.91;79.72;99941.78;4117509;28;20206;-53
2022/01/11 01:34:23;;;;;;;11.47;9.47;;;;;;;-1.95;79.28;99947.56;4088155;28;20381;-54
2022/01/11 01:36:25;;;;;;;15.70;9.70;;;;;;;-1.95;79.30;99947.56;4108185;28;20213;-53
2022/01/11 01:38:28;;;;;;;55.83;14.17;;;;;;;-2.14;78.75;99947.47;4108633;28;20277;-53
2022/01/11 01:40:38;;;;;;;13.83;11.77;;;;;;;-2.11;79.54;99957.91;4122450;28;20280;-53
2022/01/11 01:42:40;;;;;;;19.60;11.37;;;;;;;-2.18;79.58;99954.09;4093532;28;20665;-53
2022/01/11 01:44:42;;;;;;;21.10;11.33;;;;;;;-2.18;79.22;99946.91;4111398;28;20230;-53
2022/01/11 01:46:43;;;;;;;20.60;10.27;;;;;;;-2.18;79.28;99956.75;4110184;28;20766;-55
2022/01/11 01:48:46;;;;;;;13.97;10.73;;;;;;;-2.17;79.12;99948.59;4090939;28;20554;-54
2022/01/11 01:50:48;;;;;;;18.57;11.03;;;;;;;-2.18;79.50;99956.75;4110709;28;20310;-54
2022/01/11 01:52:50;;;;;;;10.73;9.93;;;;;;;-2.15;79.52;99951.16;4109634;28;20404;-54
2022/01/11 01:54:52;;;;;;;16.30;10.60;;;;;;;-2.14;79.51;99956.34;4108011;28;20245;-53
2022/01/11 01:56:54;;;;;;;11.50;9.60;;;;;;;-2.10;79.58;99956.94;4125883;28;21116;-53
2022/01/11 01:58:55;;;;;;;10.83;9.70;;;;;;;-2.10;79.32;99956.94;4135267;28;20236;-53
2022/01/11 02:01:03;;;;;;;10.60;9.60;;;;;;;-2.10;79.57;99955.13;4118808;28;21776;-55
2022/01/11 02:03:10;;;;;;;10.77;9.67;;;;;;;-2.07;79.31;99948.63;4102552;28;20214;-52
2022/01/11 02:05:12;;;;;;;12.40;11.27;;;;;;;-2.04;79.36;99949.22;4123489;28;20234;-53
2022/01/11 02:07:14;;;;;;;11.43;10.30;;;;;;;-2.01;79.27;99953.47;4104032;28;20235;-54
2022/01/11 02:09:16;;;;;;;9.77;8.87;;;;;;;-2.01;79.26;99953.47;4106582;28;20223;-52
2022/01/11 02:11:19;;;;;;;37.23;10.90;;;;;;;-2.10;78.78;99954.25;4090005;28;20207;-53
2022/01/11 02:13:21;;;;;;;12.43;11.27;;;;;;;-2.04;79.07;99959.06;4122097;28;20202;-52
2022/01/11 02:15:23;;;;;;;11.80;10.67;;;;;;;-2.03;79.24;99950.91;4104947;28;20274;-54
2022/01/11 02:17:29;;;;;;;9.53;8.77;;;;;;;-1.99;78.94;99962.19;4088587;28;20715;-52
2022/01/11 02:19:30;;;;;;;10.10;9.23;;;;;;;-1.99;78.98;99964.88;4103552;28;20301;-54
2022/01/11 02:21:32;;;;;;;10.90;10.00;;;;;;;-1.99;79.16;99962.19;4118829;28;20207;-54
2022/01/11 02:23:34;;;;;;;11.30;10.00;;;;;;;-1.97;78.71;99968.28;4100148;28;20212;-53
2022/01/11 02:25:36;;;;;;;10.73;9.83;;;;;;;-2.01;78.44;99964.19;4106374;28;20382;-54
2022/01/11 02:27:38;;;;;;;11.27;8.67;;;;;;;-2.01;78.60;99964.19;4090470;28;21081;-53
2022/01/11 02:29:40;;;;;;;11.27;10.23;;;;;;;-2.05;78.71;99973.47;4104310;28;20226;-53
2022/01/11 02:31:41;;;;;;;11.17;9.17;;;;;;;-2.03;78.61;99968.81;4121386;28;20209;-54
2022/01/11 02:33:46;;;;;;;11.13;10.03;;;;;;;-2.03;78.92;99976.84;4107762;28;20215;-54
2022/01/11 02:35:49;;;;;;;23.70;11.00;;;;;;;-2.05;78.28;99974.31;4108102;28;21208;-53
2022/01/11 02:37:51;;;;;;;13.07;9.57;;;;;;;-1.98;78.70;99979.97;4123109;28;20202;-53
2022/01/11 02:39:53;;;;;;;11.07;10.03;;;;;;;-2.07;78.45;99972.75;4106229;28;20227;-57
2022/01/11 02:41:57;;;;;;;12.37;10.67;;;;;;;-2.09;78.52;99982.75;4107324;28;20759;-53
2022/01/11 02:44:00;;;;;;;9.77;8.87;;;;;;;-2.13;78.18;99976.81;4103603;28;20211;-54
2022/01/11 02:46:02;;;;;;;9.90;9.00;;;;;;;-2.11;78.58;99990.09;4120596;28;23650;-53
2022/01/11 02:48:04;;;;;;;9.30;8.47;;;;;;;-2.14;78.32;99983.16;4105924;28;20214;-53
2022/01/11 02:50:06;;;;;;;8.30;7.50;;;;;;;-2.19;78.23;99976.50;4105296;28;20235;-54
2022/01/11 02:52:08;;;;;;;7.17;6.53;;;;;;;-2.18;78.34;99986.25;4106896;28;20221;-54
2022/01/11 02:54:10;;;;;;;21.40;8.00;;;;;;;-2.37;78.38;99972.75;4117425;28;20210;-53
2022/01/11 02:56:13;;;;;;;8.00;7.20;;;;;;;-2.37;78.12;99983.47;4099387;28;20282;-56
2022/01/11 02:58:14;;;;;;;11.17;6.70;;;;;;;-2.40;78.59;99983.75;4102151;28;20297;-53
2022/01/11 03:00:19;;;;;;;8.33;7.53;;;;;;;-2.39;78.82;99985.44;4119292;28;20226;-54
2022/01/11 03:02:20;;;;;;;13.87;7.90;;;;;;;-2.43;78.60;99994.72;4115915;28;20234;-54
2022/01/11 03:04:28;;;;;;;8.33;7.63;;;;;;;-2.39;78.92;99980.09;4102206;28;20215;-54
2022/01/11 03:06:30;;;;;;;14.60;7.57;;;;;;;-2.36;78.81;99974.44;4104683;28;20712;-53
2022/01/11 03:08:38;;;;;;;11.17;8.23;;;;;;;-2.32;78.73;99981.25;4107671;28;20265;-54
2022/01/11 03:10:40;;;;;;;9.93;8.30;;;;;;;-2.35;78.28;99981.53;4088508;28;20290;-53
2022/01/11 03:12:43;;;;;;;8.47;7.53;;;;;;;-2.34;78.59;99984.06;4107591;28;20266;-53
2022/01/11 03:14:44;;;;;;;17.40;8.17;;;;;;;-2.32;78.68;99986.59;4122932;28;20349;-53
2022/01/11 03:16:46;;;;;;;10.63;7.83;;;;;;;-2.30;78.46;99987.31;4124078;28;20238;-55
2022/01/11 03:18:48;;;;;;;12.90;7.87;;;;;;;-2.33;78.60;99990.28;4121420;28;20644;-55
2022/01/11 03:20:51;;;;;;;17.73;10.33;;;;;;;-2.35;78.31;99989.56;4125843;28;20280;-55
2022/01/11 03:22:52;;;;;;;21.73;8.73;;;;;;;-2.36;78.46;99985.16;4107838;28;20243;-55
2022/01/11 03:24:54;;;;;;;14.23;7.77;;;;;;;-2.40;78.56;99994.47;4123170;28;20220;-56
2022/01/11 03:26:56;;;;;;;7.30;6.57;;;;;;;-2.42;78.50;99997.28;4122260;28;20234;-56
2022/01/11 03:28:57;;;;;;;13.57;8.87;;;;;;;-2.68;78.19;99989.78;4106766;28;20266;-54
2022/01/11 03:31:00;;;;;;;10.63;9.57;;;;;;;-2.69;78.63;99988.06;4123037;28;20244;-55
2022/01/11 03:33:03;;;;;;;9.80;8.80;;;;;;;-2.63;78.77;99992.91;4118733;28;20206;-56
2022/01/11 03:35:06;;;;;;;14.90;10.63;;;;;;;-2.58;78.92;99996.91;4120770;28;20234;-54
2022/01/11 03:37:10;;;;;;;12.30;9.73;;;;;;;-2.54;79.07;99997.50;4105351;28;20215;-54
2022/01/11 03:39:12;;;;;;;10.13;9.10;;;;;;;-2.53;78.76;99993.81;4104831;28;20238;-56
2022/01/11 03:41:14;;;;;;;11.93;10.73;;;;;;;-2.50;78.67;100005.13;4103222;28;20273;-55
2022/01/11 03:43:16;;;;;;;12.47;9.50;;;;;;;-2.51;78.92;100007.94;4103263;28;20202;-56
2022/01/11 03:45:21;;;;;;;14.23;10.87;;;;;;;-2.48;78.88;100005.00;4121151;28;20221;-55
2022/01/11 03:47:23;;;;;;;22.17;10.63;;;;;;;-2.45;78.47;100013.63;4104259;28;20214;-54
2022/01/11 03:49:25;;;;;;;11.67;9.00;;;;;;;-2.46;78.77;100005.72;4114901;28;20341;-56
2022/01/11 03:51:27;;;;;;;16.30;9.03;;;;;;;-2.46;78.79;100011.94;4102690;28;20270;-55
2022/01/11 03:53:34;;;;;;;11.77;10.40;;;;;;;-2.44;78.60;100015.31;4101687;28;20217;-54
2022/01/11 03:57:48;;;;;;;12.23;8.60;;;;;;;-2.34;78.39;100013.53;4108285;28;20237;-55
2022/01/11 03:59:50;;;;;;;18.43;9.60;;;;;;;-2.37;78.29;100021.84;4107761;28;20258;-54
2022/01/11 04:01:52;;;;;;;11.97;9.90;;;;;;;-2.41;78.52;100019.56;4105277;28;20215;-55
2022/01/11 04:03:54;;;;;;;8.90;8.07;;;;;;;-2.43;78.48;100026.88;4104611;28;20211;-56
2022/01/11 04:05:56;;;;;;;25.13;9.17;;;;;;;-2.46;78.54;100027.16;4105044;28;20652;-54
2022/01/11 04:07:57;;;;;;;10.90;9.80;;;;;;;-2.44;78.49;100036.75;4104671;28;20241;-55
2022/01/11 04:10:00;;;;;;;9.23;8.27;;;;;;;-2.42;78.27;100033.94;4107487;28;20250;-56
2022/01/11 04:12:02;;;;;;;21.07;8.87;;;;;;;-2.51;78.15;100030.22;4107100;28;20646;-54
2022/01/11 04:14:04;;;;;;;14.10;10.20;;;;;;;-2.50;78.44;100031.06;4121783;28;20221;-54
2022/01/11 04:16:06;;;;;;;21.60;8.50;;;;;;;-2.53;77.81;100025.97;4107197;28;20677;-56
2022/01/11 04:18:07;;;;;;;17.97;9.03;;;;;;;-2.56;78.35;100026.22;4093029;28;20670;-54
2022/01/11 04:20:10;;;;;;;15.53;8.37;;;;;;;-2.59;78.08;100031.84;4110338;28;20230;-55
2022/01/11 04:22:11;;;;;;;13.23;9.40;;;;;;;-2.55;78.33;100033.31;4107136;28;20638;-55
2022/01/11 04:24:14;;;;;;;15.53;8.40;;;;;;;-2.54;78.05;100038.50;4107502;28;20639;-56
2022/01/11 04:26:20;;;;;;;8.73;7.93;;;;;;;-2.58;78.16;100038.91;4107045;28;20230;-55
2022/01/11 04:28:23;;;;;;;34.83;9.40;;;;;;;-2.62;78.38;100038.31;4106863;28;21215;-56
2022/01/11 04:30:24;;;;;;;9.10;8.30;;;;;;;-2.68;78.11;100040.69;4120461;28;20281;-56
2022/01/11 04:32:28;;;;;;;9.77;7.60;;;;;;;-2.76;78.50;100040.44;4120814;28;20682;-55
2022/01/11 04:34:30;;;;;;;17.73;8.73;;;;;;;-2.86;78.82;100039.53;4122578;28;20206;-54
2022/01/11 04:36:33;;;;;;;24.93;9.23;;;;;;;-2.91;78.62;100039.94;4106546;28;20303;-55
2022/01/11 04:38:35;;;;;;;9.73;8.23;;;;;;;-2.94;79.16;100047.38;4090678;28;20254;-54
2022/01/11 04:40:37;;;;;;;27.30;7.77;;;;;;;-2.89;78.87;100045.13;4105092;28;20371;-55
2022/01/11 04:42:38;;;;;;;12.13;8.50;;;;;;;-3.02;79.12;100055.19;4124606;28;20216;-54
2022/01/11 04:44:40;;;;;;;13.20;8.93;;;;;;;-2.94;78.92;100042.84;4109067;28;20280;-54
2022/01/11 04:46:42;;;;;;;13.23;8.87;;;;;;;-2.91;79.13;100049.78;4121820;28;20214;-54
2022/01/11 04:48:45;;;;;;;11.53;9.23;;;;;;;-2.82;79.25;100049.03;4125213;28;20213;-54
2022/01/11 04:50:47;;;;;;;11.83;7.83;;;;;;;-2.79;78.62;100048.75;4110463;28;20226;-56
2022/01/11 04:52:50;;;;;;;16.10;9.03;;;;;;;-2.81;78.83;100048.03;4110032;28;20215;-55
2022/01/11 04:54:52;;;;;;;20.00;7.53;;;;;;;-2.88;78.91;100046.88;4106110;28;20287;-54
2022/01/11 04:57:13;;;;;;;13.23;7.07;;;;;;;-2.93;79.02;100055.25;4110973;28;20234;-55
2022/01/11 04:59:15;;;;;;;17.93;8.67;;;;;;;-2.93;78.85;100059.78;4107921;28;20704;-56
2022/01/11 05:01:17;;;;;;;8.40;7.70;;;;;;;-2.85;78.80;100051.94;4124105;28;20229;-55
2022/01/11 05:03:20;;;;;;;21.87;7.00;;;;;;;-2.80;79.12;100060.44;4112091;28;20217;-56
2022/01/11 05:05:23;;;;;;;10.60;7.53;;;;;;;-2.91;79.11;100063.16;4106216;28;20689;-55
2022/01/11 05:07:24;;;;;;;17.53;8.97;;;;;;;-2.93;78.72;100055.25;4121899;28;20234;-55
2022/01/11 05:09:26;;;;;;;81.83;10.77;;;;;;;-2.95;78.94;100061.75;4106820;28;20234;-56
2022/01/11 05:11:28;;;;;;;9.23;8.40;;;;;;;-2.88;78.99;100062.94;4123354;28;20209;-54
2022/01/11 05:13:31;;;;;;;9.80;8.80;;;;;;;-2.83;79.41;100060.69;4122604;28;20244;-55
2022/01/11 05:15:33;;;;;;;9.50;8.57;;;;;;;-2.81;79.20;100064.13;4124521;28;20253;-54
2022/01/11 05:17:36;;;;;;;8.90;8.10;;;;;;;-2.77;78.97;100065.53;4127226;28;20237;-56
2022/01/11 05:19:38;;;;;;;8.83;7.93;;;;;;;-2.73;78.96;100067.00;4126886;28;20258;-55
2022/01/11 05:21:43;;;;;;;19.90;9.27;;;;;;;-2.78;78.97;100064.72;4123551;28;20241;-55
2022/01/11 05:23:44;;;;;;;73.87;10.43;;;;;;;-2.75;78.45;100071.63;4105442;28;20246;-54
2022/01/11 05:25:46;;;;;;;12.53;8.80;;;;;;;-2.76;78.35;100068.09;4120481;28;20214;-55
2022/01/11 05:27:48;;;;;;;66.97;10.53;;;;;;;-2.73;78.22;100065.16;4106585;28;20308;-55
2022/01/11 05:29:50;;;;;;;8.40;7.63;;;;;;;-2.70;78.67;100072.06;4109193;28;20589;-54
2022/01/11 05:31:52;;;;;;;10.37;9.37;;;;;;;-2.70;78.64;100069.41;4092051;28;20204;-54
2022/01/11 05:33:54;;;;;;;12.33;8.80;;;;;;;-2.67;78.41;100067.31;4122787;28;20205;-56
2022/01/11 05:35:56;;;;;;;10.97;9.83;;;;;;;-2.64;78.46;100058.16;4123656;28;20309;-56
2022/01/11 05:37:58;;;;;;;15.20;8.37;;;;;;;-2.69;78.56;100063.94;4109914;28;20287;-56
2022/01/11 05:39:59;;;;;;;27.37;9.60;;;;;;;-2.82;78.74;100073.13;4109133;28;20261;-56
2022/01/11 05:42:01;;;;;;;21.63;9.40;;;;;;;-2.82;78.53;100083.84;4094756;28;20957;-55
2022/01/11 05:44:03;;;;;;;11.63;9.43;;;;;;;-2.95;78.42;100088.50;4092118;28;20211;-55
2022/01/11 05:46:06;;;;;;;10.07;8.83;;;;;;;-2.94;79.00;100087.53;4104488;28;20258;-54
2022/01/11 05:48:08;;;;;;;19.27;9.87;;;;;;;-2.94;79.18;100085.69;4105432;28;20772;-55
2022/01/11 05:50:11;;;;;;;15.77;8.60;;;;;;;-3.15;79.40;100091.97;4119158;28;21035;-56
2022/01/11 05:52:13;;;;;;;15.47;10.43;;;;;;;-3.02;79.07;100088.16;4108728;28;20203;-54
2022/01/11 05:54:15;;;;;;;11.97;10.87;;;;;;;-3.00;79.18;100090.72;4122473;28;20241;-56
2022/01/11 05:56:17;;;;;;;11.00;9.90;;;;;;;-2.91;79.27;100089.94;4105917;28;20198;-57
2022/01/11 05:58:18;;;;;;;12.77;9.83;;;;;;;-2.94;79.18;100092.88;4123476;28;20274;-55
2022/01/11 06:00:21;;;;;;;14.17;10.70;;;;;;;-2.92;79.34;100098.94;4108952;28;20250;-54
2022/01/11 06:02:22;;;;;;;13.00;11.90;;;;;;;-2.86;78.92;100095.78;4045560;28;20286;-54
2022/01/11 06:04:24;;;;;;;13.13;10.60;;;;;;;-2.85;79.15;100097.47;4091804;28;20968;-56
2022/01/11 06:06:26;;;;;;;12.47;11.33;;;;;;;-2.83;78.86;100107.06;4107478;28;20242;-54
2022/01/11 06:08:31;;;;;;;14.60;13.10;;;;;;;-2.77;78.98;100100.34;4093356;28;20210;-56
2022/01/11 06:10:33;;;;;;;12.43;11.37;;;;;;;-2.74;78.96;100106.31;4107972;28;20254;-57
2022/01/11 06:12:35;;;;;;;20.63;10.33;;;;;;;-2.71;78.45;100118.59;4126965;28;20730;-54
2022/01/11 06:14:37;;;;;;;10.23;9.17;;;;;;;-2.79;78.07;100110.34;4126246;28;20573;-53
2022/01/11 06:16:38;;;;;;;11.93;10.73;;;;;;;-2.67;78.24;100117.38;4105314;28;20685;-54
2022/01/11 06:18:40;;;;;;;13.63;12.43;;;;;;;-2.78;77.98;100101.34;4120734;28;20623;-55
2022/01/11 06:20:42;;;;;;;14.90;11.17;;;;;;;-2.74;78.22;100102.78;4124566;28;20230;-55
2022/01/11 06:22:44;;;;;;;13.53;11.03;;;;;;;-2.75;78.42;100106.47;4119969;28;20715;-56
2022/01/11 06:24:45;;;;;;;12.10;11.00;;;;;;;-2.82;77.95;100105.25;4106462;28;20215;-54
2022/01/11 06:26:47;;;;;;;19.43;11.53;;;;;;;-2.83;78.18;100098.19;4110363;28;20238;-54
2022/01/11 06:28:51;;;;;;;12.13;10.97;;;;;;;-2.82;78.17;100099.91;4109826;28;20228;-54
2022/01/11 06:30:52;;;;;;;12.50;11.27;;;;;;;-2.81;78.09;100096.25;4119562;28;20233;-55
2022/01/11 06:32:55;;;;;;;13.30;11.00;;;;;;;-2.83;78.17;100096.38;4106429;28;20215;-54
2022/01/11 06:34:59;;;;;;;12.07;10.87;;;;;;;-2.80;77.97;100103.31;4109994;28;20242;-55
2022/01/11 06:37:00;;;;;;;11.23;10.17;;;;;;;-2.83;77.63;100095.50;4093616;28;20864;-55
2022/01/11 06:39:03;;;;;;;13.03;11.80;;;;;;;-2.95;77.52;100099.22;4121572;28;20257;-55
2022/01/11 06:41:05;;;;;;;11.23;10.10;;;;;;;-2.94;77.61;100106.28;4105840;28;20769;-55
2022/01/11 06:43:07;;;;;;;10.63;9.63;;;;;;;-2.92;78.06;100098.94;4121759;28;20284;-55
2022/01/11 06:45:09;;;;;;;12.30;11.20;;;;;;;-2.94;77.72;100103.59;4105410;28;20628;-56
2022/01/11 06:47:11;;;;;;;13.43;11.43;;;;;;;-2.95;77.72;100099.22;4120971;28;20731;-55
2022/01/11 06:49:13;;;;;;;12.27;11.07;;;;;;;-2.92;78.06;100104.31;4107164;28;20704;-55
2022/01/11 06:51:14;;;;;;;11.43;10.30;;;;;;;-2.95;77.75;100101.91;4106407;28;20219;-55
2022/01/11 06:53:16;;;;;;;10.40;9.40;;;;;;;-2.92;77.73;100109.66;4105985;28;20302;-55
2022/01/11 06:55:19;;;;;;;12.63;11.20;;;;;;;-2.87;77.44;100112.81;4124662;28;20213;-55
2022/01/11 06:57:21;;;;;;;12.73;11.73;;;;;;;-2.81;77.39;100109.63;4110102;28;21112;-54
2022/01/11 06:59:23;;;;;;;11.43;10.27;;;;;;;-2.91;77.50;100109.53;4123505;28;20236;-54
2022/01/11 07:01:24;;;;;;;12.43;11.43;;;;;;;-2.92;77.56;100107.84;4123678;28;20257;-55
2022/01/11 07:03:28;;;;;;;11.20;9.77;;;;;;;-2.91;77.50;100100.66;4127113;28;20242;-54
2022/01/11 07:05:30;;;;;;;12.00;10.80;;;;;;;-2.91;77.19;100106.00;4125529;28;20314;-55
2022/01/11 07:07:32;;;;;;;12.77;11.10;;;;;;;-2.91;77.66;100103.31;4124357;28;20254;-54
2022/01/11 07:09:35;;;;;;;13.63;12.30;;;;;;;-2.90;77.51;100107.69;4124185;28;20233;-55
2022/01/11 07:11:40;;;;;;;17.93;12.07;;;;;;;-2.85;77.49;100121.56;4111028;28;20195;-54
2022/01/11 07:13:41;;;;;;;13.50;11.93;;;;;;;-2.96;77.45;100110.88;4112078;28;20246;-55
2022/01/11 07:15:43;;;;;;;12.70;11.33;;;;;;;-2.94;77.90;100123.16;4122022;28;20204;-55
2022/01/11 07:17:45;;;;;;;14.40;13.10;;;;;;;-2.89;77.77;100114.75;4110924;28;20211;-54
2022/01/11 07:19:47;;;;;;;15.03;13.43;;;;;;;-2.89;77.87;100115.63;4110579;28;20226;-55
2022/01/11 07:21:48;;;;;;;16.60;13.37;;;;;;;-2.87;77.39;100118.19;4125742;28;20230;-55
2022/01/11 07:23:50;;;;;;;13.17;11.93;;;;;;;-2.87;77.65;100115.50;4126795;28;20272;-55
2022/01/11 07:25:52;;;;;;;11.20;10.13;;;;;;;-2.88;77.71;100120.00;4126821;28;20237;-54
2022/01/11 07:27:53;;;;;;;18.43;11.30;;;;;;;-2.88;77.80;100127.19;4126433;28;20284;-54
2022/01/11 07:29:55;;;;;;;12.13;10.83;;;;;;;-2.81;77.41;100133.75;4126914;28;20750;-56
2022/01/11 07:31:57;;;;;;;12.10;10.93;;;;;;;-2.78;77.74;100128.13;4124229;28;20202;-55
2022/01/11 07:33:59;;;;;;;13.03;11.90;;;;;;;-2.80;77.92;100130.09;4125594;28;20221;-55
2022/01/11 07:36:01;;;;;;;12.60;11.40;;;;;;;-2.77;77.70;100143.19;4108773;28;20214;-55
2022/01/11 07:38:03;;;;;;;12.80;11.60;;;;;;;-2.83;77.78;100135.66;4104627;28;20317;-57
2022/01/11 07:40:06;;;;;;;12.17;11.00;;;;;;;-2.79;77.88;100148.72;4107477;28;20223;-54
2022/01/11 07:42:09;;;;;;;94.57;12.90;;;;;;;-2.92;77.76;100153.38;4103264;28;20346;-54
2022/01/11 07:44:11;;;;;;;15.73;11.27;;;;;;;-2.84;77.90;100156.25;4109963;28;20203;-54
2022/01/11 07:46:13;;;;;;;20.83;12.43;;;;;;;-2.81;78.29;100157.84;4125444;28;20205;-53
2022/01/11 07:48:15;;;;;;;14.47;12.23;;;;;;;-2.86;78.54;100160.03;4109936;28;20210;-55
2022/01/11 07:50:17;;;;;;;13.03;11.57;;;;;;;-2.81;78.42;100163.19;4090990;28;20239;-54
2022/01/11 07:52:19;;;;;;;14.80;12.53;;;;;;;-2.78;78.54;100165.59;4106354;28;20208;-55
2022/01/11 07:54:21;;;;;;;17.73;13.70;;;;;;;-2.74;78.37;100167.06;4108005;28;20603;-54
2022/01/11 07:56:23;;;;;;;16.63;13.60;;;;;;;-2.71;78.57;100173.03;4120807;28;20210;-54
2022/01/11 07:58:25;;;;;;;14.27;11.93;;;;;;;-2.69;78.24;100172.88;4108516;28;20210;-54
2022/01/11 08:00:27;;;;;;;19.90;13.43;;;;;;;-2.65;78.69;100177.00;4110398;28;20300;-54
2022/01/11 08:02:28;;;;;;;13.30;12.10;;;;;;;-2.64;78.70;100184.06;4090930;28;20242;-56
2022/01/11 08:04:33;;;;;;;14.70;13.20;;;;;;;-2.58;78.37;100188.91;4124750;28;20206;-52
2022/01/11 08:06:35;;;;;;;19.37;14.57;;;;;;;-2.57;78.38;100185.25;4123630;28;20644;-55
2022/01/11 08:08:37;;;;;;;22.33;12.03;;;;;;;-2.57;78.29;100190.63;4122826;28;20684;-55
2022/01/11 08:10:39;;;;;;;17.90;11.30;;;;;;;-2.60;78.74;100191.72;4126550;28;20240;-53
2022/01/11 08:12:40;;;;;;;13.67;12.30;;;;;;;-2.58;78.72;100188.91;4092024;28;20211;-54
2022/01/11 08:14:42;;;;;;;14.73;13.40;;;;;;;-2.55;78.92;100188.69;4125786;28;20214;-55
2022/01/11 08:16:44;;;;;;;23.13;12.00;;;;;;;-2.48;78.85;100184.53;4108711;28;20230;-53
2022/01/11 08:18:46;;;;;;;17.63;11.90;;;;;;;-2.49;79.00;100190.84;4109261;28;20210;-54
2022/01/11 08:20:48;;;;;;;14.20;12.20;;;;;;;-2.41;78.67;100189.22;4111602;28;20260;-53
2022/01/11 08:22:52;;;;;;;27.03;12.90;;;;;;;-2.34;78.52;100203.81;4113270;28;20249;-54
2022/01/11 08:24:59;;;;;;;15.47;13.73;;;;;;;-2.35;78.64;100193.25;4116062;28;20256;-55
2022/01/11 08:27:01;;;;;;;47.70;12.50;;;;;;;-2.39;78.55;100194.47;4130301;28;20681;-53
2022/01/11 08:29:03;;;;;;;17.00;12.97;;;;;;;-2.30;78.94;100197.22;4127070;28;20210;-54
2022/01/11 08:31:05;;;;;;;28.63;13.53;;;;;;;-2.44;78.97;100194.84;4109495;28;20237;-55
2022/01/11 08:33:09;;;;;;;14.17;11.90;;;;;;;-2.36;78.97;100199.56;4127541;28;20224;-54
2022/01/11 08:35:11;;;;;;;14.17;12.53;;;;;;;-2.26;78.82;100198.69;4126012;28;20205;-55
2022/01/11 08:37:14;;;;;;;15.40;8.53;;;;;;;-2.32;78.88;100201.00;4128068;28;20249;-54
2022/01/11 08:39:16;;;;;;;12.97;9.80;;;;;;;-2.43;79.32;100209.09;4130260;28;20703;-56
2022/01/11 08:41:22;;;;;;;11.17;10.00;;;;;;;-2.37;79.38;100200.53;4114796;28;20222;-55
2022/01/11 08:43:24;;;;;;;24.30;9.23;;;;;;;-2.28;79.36;100203.31;4107647;28;20245;-56
2022/01/11 08:45:26;;;;;;;12.53;11.23;;;;;;;-2.17;79.48;100199.72;4097257;28;20210;-55
2022/01/11 08:47:31;;;;;;;11.97;10.47;;;;;;;-2.09;79.18;100206.16;4127021;28;20268;-56
2022/01/11 08:49:36;;;;;;;23.63;11.90;;;;;;;-2.01;79.28;100206.34;4113783;28;20269;-56
2022/01/11 08:51:37;;;;;;;17.13;12.47;;;;;;;-1.90;79.15;100203.59;4098597;28;20241;-55
2022/01/11 08:53:39;;;;;;;16.90;12.33;;;;;;;-1.89;78.99;100210.66;4113196;28;20217;-56
2022/01/11 08:55:41;;;;;;;32.87;15.17;;;;;;;-1.93;78.99;100219.94;4129273;28;20209;-56
2022/01/11 08:57:44;;;;;;;19.37;11.67;;;;;;;-1.94;78.78;100214.72;4125936;28;20209;-55
2022/01/11 08:59:47;;;;;;;23.93;13.60;;;;;;;-1.97;78.69;100217.66;4128520;28;20272;-55
2022/01/11 09:01:49;;;;;;;15.93;12.63;;;;;;;-1.98;78.62;100221.31;4129433;28;20222;-55
2022/01/11 09:03:52;;;;;;;26.87;13.33;;;;;;;-1.95;78.91;100215.72;4110048;28;20247;-55
2022/01/11 09:05:54;;;;;;;28.13;12.97;;;;;;;-1.92;78.50;100221.69;4129320;28;20245;-54
2022/01/11 09:07:56;;;;;;;31.03;12.53;;;;;;;-1.96;78.43;100214.84;4109608;28;20215;-52
2022/01/11 09:09:57;;;;;;;27.03;13.77;;;;;;;-1.87;78.63;100226.63;4113009;28;20222;-55
2022/01/11 09:12:03;;;;;;;30.53;13.73;;;;;;;-1.80;78.67;100225.97;4127390;28;20719;-56
2022/01/11 09:14:05;;;;;;;16.97;12.00;;;;;;;-1.76;78.35;100215.81;4111360;28;20207;-56
2022/01/11 09:16:08;;;;;;;13.77;11.77;;;;;;;-1.82;78.18;100221.75;4126594;28;20620;-54
2022/01/11 09:18:10;;;;;;;17.03;11.90;;;;;;;-1.72;78.12;100217.28;4128721;28;20233;-55
2022/01/11 09:20:13;;;;;;;19.77;8.70;;;;;;;-1.89;77.87;100228.63;4123554;28;20591;-56
2022/01/11 09:22:15;;;;;;;6.13;5.20;;;;;;;-1.79;78.39;100221.47;4090382;28;20792;-55
2022/01/11 09:24:19;;;;;;;15.40;11.10;;;;;;;-1.70;77.86;100226.03;4105715;28;20246;-55
2022/01/11 09:26:21;;;;;;;28.23;12.37;;;;;;;-1.66;77.83;100227.50;4106723;28;20736;-54
2022/01/11 09:28:23;;;;;;;22.43;13.83;;;;;;;-1.77;77.37;100230.22;4107844;28;20199;-55